sensor_id;sensor_type;location;lat;lon;timestamp;pressure;altitude;pressure_sealevel;temperature;humidity
46598;BME280;32318;48.858;8.252;2023-02-22T00:03:34;100198.78;;;6.30;72.71
46598;BME280;32318;48.858;8.252;2023-02-22T00:11:34;100192.47;;;6.21;73.35
46598;BME280;32318;48.858;8.252;2023-02-22T00:19:35;100194.03;;;6.24;72.76
46598;BME280;32318;48.858;8.252;2023-02-22T00:27:35;100189.13;;;6.19;73.28
46598;BME280;32318;48.858;8.252;2023-02-22T00:35:35;100180.63;;;6.25;72.61
46598;BME280;32318;48.858;8.252;2023-02-22T00:43:36;100178.53;;;6.19;72.12
46598;BME280;32318;48.858;8.252;2023-02-22T00:51:36;100176.56;;;6.11;71.12
46598;BME280;32318;48.858;8.252;2023-02-22T00:59:36;100167.47;;;6.04;72.19
46598;BME280;32318;48.858;8.252;2023-02-22T01:07:37;100150.41;;;5.97;73.25
46598;BME280;32318;48.858;8.252;2023-02-22T01:15:40;100138.13;;;5.96;73.04
46598;BME280;32318;48.858;8.252;2023-02-22T01:23:44;100141.16;;;5.81;72.87
46598;BME280;32318;48.858;8.252;2023-02-22T01:31:54;100136.41;;;5.75;74.09
46598;BME280;32318;48.858;8.252;2023-02-22T01:39:55;100130.41;;;5.73;74.24
46598;BME280;32318;48.858;8.252;2023-02-22T01:47:59;100124.69;;;5.68;73.99
46598;BME280;32318;48.858;8.252;2023-02-22T01:56:01;100123.56;;;5.71;74.14
46598;BME280;32318;48.858;8.252;2023-02-22T02:04:10;100113.50;;;5.55;74.99
46598;BME280;32318;48.858;8.252;2023-02-22T02:12:13;100121.72;;;5.52;74.37
46598;BME280;32318;48.858;8.252;2023-02-22T02:37:13;100096.44;;;5.38;75.09
46598;BME280;32318;48.858;8.252;2023-02-22T02:45:23;100099.22;;;5.36;75.31
46598;BME280;32318;48.858;8.252;2023-02-22T02:53:32;100089.31;;;5.38;75.26
46598;BME280;32318;48.858;8.252;2023-02-22T03:09:52;100078.03;;;5.36;73.88
46598;BME280;32318;48.858;8.252;2023-02-22T03:26:13;100071.31;;;5.22;73.39
46598;BME280;32318;48.858;8.252;2023-02-22T03:34:24;100069.31;;;5.14;74.96
46598;BME280;32318;48.858;8.252;2023-02-22T03:42:29;100058.03;;;5.12;75.34
46598;BME280;32318;48.858;8.252;2023-02-22T03:50:33;100063.47;;;5.11;76.16
46598;BME280;32318;48.858;8.252;2023-02-22T03:58:36;100060.38;;;5.06;75.91
46598;BME280;32318;48.858;8.252;2023-02-22T04:06:36;100057.59;;;5.07;76.26
46598;BME280;32318;48.858;8.252;2023-02-22T04:14:37;100064.56;;;5.08;76.11
46598;BME280;32318;48.858;8.252;2023-02-22T04:22:37;100055.91;;;5.06;75.86
46598;BME280;32318;48.858;8.252;2023-02-22T04:30:37;100056.53;;;4.89;75.29
46598;BME280;32318;48.858;8.252;2023-02-22T04:38:37;100056.34;;;4.80;75.10
46598;BME280;32318;48.858;8.252;2023-02-22T04:46:38;100067.91;;;4.79;75.83
46598;BME280;32318;48.858;8.252;2023-02-22T04:54:38;100068.38;;;4.84;75.57
46598;BME280;32318;48.858;8.252;2023-02-22T05:02:38;100060.53;;;4.83;75.09
46598;BME280;32318;48.858;8.252;2023-02-22T05:10:39;100051.63;;;4.84;74.88
46598;BME280;32318;48.858;8.252;2023-02-22T05:18:39;100058.16;;;4.80;73.75
46598;BME280;32318;48.858;8.252;2023-02-22T05:26:39;100057.91;;;4.62;74.65
46598;BME280;32318;48.858;8.252;2023-02-22T05:34:41;100069.25;;;4.52;74.47
46598;BME280;32318;48.858;8.252;2023-02-22T05:42:41;100067.59;;;4.51;74.49
46598;BME280;32318;48.858;8.252;2023-02-22T05:50:42;100070.88;;;4.44;75.25
46598;BME280;32318;48.858;8.252;2023-02-22T05:58:43;100062.75;;;4.35;74.78
46598;BME280;32318;48.858;8.252;2023-02-22T06:06:43;100068.28;;;4.32;74.90
46598;BME280;32318;48.858;8.252;2023-02-22T06:14:43;100063.25;;;4.29;74.36
46598;BME280;32318;48.858;8.252;2023-02-22T06:22:46;100080.69;;;4.32;74.37
46598;BME280;32318;48.858;8.252;2023-02-22T06:30:47;100072.56;;;4.23;75.16
46598;BME280;32318;48.858;8.252;2023-02-22T06:38:47;100070.16;;;4.20;75.09
46598;BME280;32318;48.858;8.252;2023-02-22T06:46:49;100083.75;;;4.16;74.78
46598;BME280;32318;48.858;8.252;2023-02-22T06:54:52;100097.09;;;4.14;75.69
46598;BME280;32318;48.858;8.252;2023-02-22T07:02:53;100103.47;;;4.12;76.11
46598;BME280;32318;48.858;8.252;2023-02-22T07:10:53;100100.59;;;4.36;76.24
46598;BME280;32318;48.858;8.252;2023-02-22T07:18:54;100106.75;;;4.36;76.49
46598;BME280;32318;48.858;8.252;2023-02-22T07:26:54;100111.50;;;4.43;76.90
46598;BME280;32318;48.858;8.252;2023-02-22T07:34:54;100108.53;;;4.57;77.13
46598;BME280;32318;48.858;8.252;2023-02-22T07:42:59;100101.72;;;4.76;76.90
46598;BME280;32318;48.858;8.252;2023-02-22T07:51:00;100106.53;;;4.92;77.73
46598;BME280;32318;48.858;8.252;2023-02-22T07:59:00;100099.69;;;5.10;78.05
46598;BME280;32318;48.858;8.252;2023-02-22T08:07:00;100092.91;;;5.27;77.07
46598;BME280;32318;48.858;8.252;2023-02-22T08:15:04;100097.00;;;5.41;77.24
46598;BME280;32318;48.858;8.252;2023-02-22T08:23:06;100095.22;;;5.52;77.39
46598;BME280;32318;48.858;8.252;2023-02-22T08:31:07;100092.91;;;5.68;76.87
46598;BME280;32318;48.858;8.252;2023-02-22T08:39:08;100091.97;;;5.89;76.88
46598;BME280;32318;48.858;8.252;2023-02-22T08:47:08;100079.19;;;6.14;75.67
46598;BME280;32318;48.858;8.252;2023-02-22T08:55:08;100078.47;;;6.31;75.04
46598;BME280;32318;48.858;8.252;2023-02-22T09:03:11;100080.13;;;6.52;74.82
46598;BME280;32318;48.858;8.252;2023-02-22T09:11:13;100076.84;;;6.78;74.77
46598;BME280;32318;48.858;8.252;2023-02-22T09:19:13;100078.06;;;7.03;74.08
46598;BME280;32318;48.858;8.252;2023-02-22T09:27:15;100069.28;;;7.30;72.31
46598;BME280;32318;48.858;8.252;2023-02-22T09:35:15;100061.06;;;7.51;71.81
46598;BME280;32318;48.858;8.252;2023-02-22T10:08:16;100044.75;;;8.37;70.36
46598;BME280;32318;48.858;8.252;2023-02-22T10:16:33;100045.25;;;8.58;68.98
46598;BME280;32318;48.858;8.252;2023-02-22T10:25:09;100047.66;;;8.70;67.60
46598;BME280;32318;48.858;8.252;2023-02-22T10:33:16;100049.03;;;8.74;67.88
46598;BME280;32318;48.858;8.252;2023-02-22T10:41:25;100034.44;;;8.86;67.38
46598;BME280;32318;48.858;8.252;2023-02-22T10:49:33;100032.69;;;8.95;67.54
46598;BME280;32318;48.858;8.252;2023-02-22T10:57:36;100031.25;;;9.09;67.61
46598;BME280;32318;48.858;8.252;2023-02-22T11:05:38;100022.69;;;9.32;67.20
46598;BME280;32318;48.858;8.252;2023-02-22T11:13:39;100018.25;;;9.49;65.88
46598;BME280;32318;48.858;8.252;2023-02-22T11:21:39;100012.47;;;9.78;66.29
46598;BME280;32318;48.858;8.252;2023-02-22T11:29:40;99996.13;;;9.98;65.28
46598;BME280;32318;48.858;8.252;2023-02-22T11:37:40;99997.16;;;10.13;65.30
46598;BME280;32318;48.858;8.252;2023-02-22T11:45:56;99984.81;;;10.20;64.46
46598;BME280;32318;48.858;8.252;2023-02-22T11:54:25;99974.47;;;10.42;64.51
46598;BME280;32318;48.858;8.252;2023-02-22T12:02:56;99964.59;;;10.59;63.98
46598;BME280;32318;48.858;8.252;2023-02-22T12:11:37;99947.28;;;10.87;62.93
46598;BME280;32318;48.858;8.252;2023-02-22T12:19:42;99943.53;;;11.04;63.04
46598;BME280;32318;48.858;8.252;2023-02-22T12:27:46;99942.97;;;11.17;62.86
46598;BME280;32318;48.858;8.252;2023-02-22T12:35:53;99944.69;;;11.41;62.96
46598;BME280;32318;48.858;8.252;2023-02-22T12:44:06;99938.97;;;11.44;60.83
46598;BME280;32318;48.858;8.252;2023-02-22T13:00:47;99939.22;;;11.81;60.30
46598;BME280;32318;48.858;8.252;2023-02-22T13:09:06;99934.06;;;11.95;59.48
46598;BME280;32318;48.858;8.252;2023-02-22T13:25:46;99930.13;;;12.14;58.85
46598;BME280;32318;48.858;8.252;2023-02-22T13:41:55;99932.31;;;12.25;61.13
46598;BME280;32318;48.858;8.252;2023-02-22T13:50:14;99924.94;;;12.27;60.62
46598;BME280;32318;48.858;8.252;2023-02-22T13:58:15;99925.69;;;12.36;61.63
46598;BME280;32318;48.858;8.252;2023-02-22T14:06:35;99925.44;;;12.46;60.75
46598;BME280;32318;48.858;8.252;2023-02-22T14:23:36;99923.91;;;12.88;60.89
46598;BME280;32318;48.858;8.252;2023-02-22T14:39:46;99906.53;;;12.84;60.45
46598;BME280;32318;48.858;8.252;2023-02-22T14:47:52;99907.66;;;12.75;61.02
46598;BME280;32318;48.858;8.252;2023-02-22T14:56:04;99908.50;;;12.75;61.79
46598;BME280;32318;48.858;8.252;2023-02-22T15:04:29;99910.81;;;12.78;60.94
46598;BME280;32318;48.858;8.252;2023-02-22T15:12:32;99906.03;;;12.74;60.52
46598;BME280;32318;48.858;8.252;2023-02-22T15:20:34;99909.88;;;12.71;59.69
46598;BME280;32318;48.858;8.252;2023-02-22T15:28:35;99908.97;;;12.64;59.62
46598;BME280;32318;48.858;8.252;2023-02-22T15:36:37;99907.69;;;12.60;60.19
46598;BME280;32318;48.858;8.252;2023-02-22T15:44:40;99921.44;;;12.57;59.34
46598;BME280;32318;48.858;8.252;2023-02-22T15:53:00;99924.22;;;12.48;60.89
46598;BME280;32318;48.858;8.252;2023-02-22T16:01:04;99925.69;;;12.36;61.08
46598;BME280;32318;48.858;8.252;2023-02-22T16:09:12;99937.41;;;12.20;60.79
46598;BME280;32318;48.858;8.252;2023-02-22T16:25:31;99932.91;;;11.97;61.67
46598;BME280;32318;48.858;8.252;2023-02-22T16:33:31;99920.44;;;11.89;62.69
46598;BME280;32318;48.858;8.252;2023-02-22T16:41:32;99927.19;;;11.77;63.04
46598;BME280;32318;48.858;8.252;2023-02-22T16:49:33;99934.81;;;11.65;63.82
46598;BME280;32318;48.858;8.252;2023-02-22T16:57:33;99946.97;;;11.53;64.24
46598;BME280;32318;48.858;8.252;2023-02-22T17:05:34;99945.69;;;11.40;64.56
46598;BME280;32318;48.858;8.252;2023-02-22T17:13:37;99953.47;;;11.27;64.91
46598;BME280;32318;48.858;8.252;2023-02-22T17:21:39;99966.25;;;11.08;65.65
46598;BME280;32318;48.858;8.252;2023-02-22T17:29:39;99964.47;;;10.92;66.49
46598;BME280;32318;48.858;8.252;2023-02-22T17:37:46;99973.94;;;11.03;66.42
46598;BME280;32318;48.858;8.252;2023-02-22T17:45:47;99979.63;;;11.32;65.46
46598;BME280;32318;48.858;8.252;2023-02-22T17:53:47;99983.28;;;11.39;64.96
46598;BME280;32318;48.858;8.252;2023-02-22T18:01:47;99987.28;;;11.43;65.01
46598;BME280;32318;48.858;8.252;2023-02-22T18:09:48;99993.63;;;11.42;64.92
46598;BME280;32318;48.858;8.252;2023-02-22T18:17:48;99996.63;;;11.47;65.13
46598;BME280;32318;48.858;8.252;2023-02-22T18:25:50;99980.38;;;11.49;64.82
46598;BME280;32318;48.858;8.252;2023-02-22T18:33:51;99984.06;;;11.48;65.01
46598;BME280;32318;48.858;8.252;2023-02-22T18:41:52;99977.41;;;11.43;64.98
46598;BME280;32318;48.858;8.252;2023-02-22T18:49:52;99981.63;;;11.38;65.13
46598;BME280;32318;48.858;8.252;2023-02-22T18:57:52;99977.53;;;11.19;65.69
46598;BME280;32318;48.858;8.252;2023-02-22T19:06:02;99979.75;;;11.07;66.13
46598;BME280;32318;48.858;8.252;2023-02-22T19:14:03;99976.31;;;10.98;66.29
46598;BME280;32318;48.858;8.252;2023-02-22T19:22:04;99973.31;;;10.93;66.45
46598;BME280;32318;48.858;8.252;2023-02-22T19:30:04;99969.31;;;10.89;66.58
46598;BME280;32318;48.858;8.252;2023-02-22T19:38:05;99965.06;;;10.71;67.09
46598;BME280;32318;48.858;8.252;2023-02-22T19:46:06;99972.78;;;10.58;68.36
46598;BME280;32318;48.858;8.252;2023-02-22T19:54:11;99976.59;;;10.55;68.86
46598;BME280;32318;48.858;8.252;2023-02-22T20:02:12;99978.94;;;10.58;69.74
46598;BME280;32318;48.858;8.252;2023-02-22T20:10:13;99979.13;;;10.57;69.45
46598;BME280;32318;48.858;8.252;2023-02-22T20:18:14;99983.97;;;10.53;70.24
46598;BME280;32318;48.858;8.252;2023-02-22T20:26:20;99988.78;;;10.49;71.87
46598;BME280;32318;48.858;8.252;2023-02-22T20:34:21;99991.44;;;10.49;72.96
46598;BME280;32318;48.858;8.252;2023-02-22T20:42:21;99999.13;;;10.52;73.70
46598;BME280;32318;48.858;8.252;2023-02-22T20:50:22;99997.13;;;10.63;72.97
46598;BME280;32318;48.858;8.252;2023-02-22T20:58:24;99998.59;;;10.65;73.65
46598;BME280;32318;48.858;8.252;2023-02-22T21:06:24;99996.75;;;10.74;72.45
46598;BME280;32318;48.858;8.252;2023-02-22T21:14:25;100000.75;;;10.70;74.66
46598;BME280;32318;48.858;8.252;2023-02-22T21:22:25;99999.09;;;10.69;75.48
46598;BME280;32318;48.858;8.252;2023-02-22T21:30:26;100004.63;;;10.67;75.59
46598;BME280;32318;48.858;8.252;2023-02-22T21:38:26;99997.28;;;10.61;75.87
46598;BME280;32318;48.858;8.252;2023-02-22T21:46:27;100005.63;;;10.58;76.29
46598;BME280;32318;48.858;8.252;2023-02-22T21:54:28;99990.44;;;10.50;76.92
46598;BME280;32318;48.858;8.252;2023-02-22T22:02:28;99991.63;;;10.48;77.64
46598;BME280;32318;48.858;8.252;2023-02-22T22:10:28;99995.28;;;10.47;78.03
46598;BME280;32318;48.858;8.252;2023-02-22T22:18:32;99999.47;;;10.41;78.14
46598;BME280;32318;48.858;8.252;2023-02-22T22:26:33;99996.47;;;10.36;79.68
46598;BME280;32318;48.858;8.252;2023-02-22T22:34:33;99990.47;;;10.26;79.63
46598;BME280;32318;48.858;8.252;2023-02-22T22:42:33;99986.63;;;10.12;79.75
46598;BME280;32318;48.858;8.252;2023-02-22T22:50:34;99986.00;;;10.10;78.78
46598;BME280;32318;48.858;8.252;2023-02-22T22:58:34;99978.31;;;10.07;79.26
46598;BME280;32318;48.858;8.252;2023-02-22T23:06:42;99986.50;;;10.05;80.58
46598;BME280;32318;48.858;8.252;2023-02-22T23:14:44;99979.31;;;9.97;80.68
46598;BME280;32318;48.858;8.252;2023-02-22T23:22:44;99971.81;;;9.93;80.87
46598;BME280;32318;48.858;8.252;2023-02-22T23:30:46;99975.16;;;9.86;81.27
46598;BME280;32318;48.858;8.252;2023-02-22T23:38:47;99969.13;;;9.84;81.83
46598;BME280;32318;48.858;8.252;2023-02-22T23:46:48;99966.97;;;9.80;82.78
46598;BME280;32318;48.858;8.252;2023-02-22T23:54:54;99962.81;;;9.77;82.61
